Time;durP1;ratioP1;P1;durP2;ratioP2;P2;SDS_P1;SDS_P2;PMS_P1;PMS_P2;Temp;Humidity;BMP_temperature;BMP_pressure;BME280_temperature;BME280_humidity;BME280_pressure;Samples;Min_cycle;Max_cycle;Signal;HPM_P1;HPM_P2
2021/09/05 00:00:12;;;;;;;880.63;783.45;;;;;;;;;;5009571;28;20108;-75
2021/09/05 00:02:38;;;;;;;887.60;790.00;;;;;;;;;;5009102;28;20041;-75
2021/09/05 00:05:04;;;;;;;883.00;785.53;;;;;;;;;;5021564;28;20071;-75
2021/09/05 00:07:30;;;;;;;879.20;781.92;;;;;;;;;;5003126;28;20029;-75
2021/09/05 00:09:56;;;;;;;879.72;782.55;;;;;;;;;;5005806;28;20033;-75
2021/09/05 00:12:23;;;;;;;881.92;784.47;;;;;;;;;;5027073;28;20034;-76
2021/09/05 00:14:49;;;;;;;875.35;776.28;;;;;;;;;;5024735;28;20026;-75
2021/09/05 00:17:15;;;;;;;885.53;788.10;;;;;;;;;;5009024;28;20041;-75
2021/09/05 00:19:41;;;;;;;869.75;769.95;;;;;;;;;;5027256;28;20022;-76
2021/09/05 00:22:07;;;;;;;872.63;774.88;;;;;;;;;;5006446;28;20048;-76
2021/09/05 00:24:33;;;;;;;880.40;782.85;;;;;;;;;;5023839;28;20110;-74
2021/09/05 00:26:59;;;;;;;873.17;771.42;;;;;;;;;;5004800;28;20034;-75
2021/09/05 00:29:25;;;;;;;877.53;775.83;;;;;;;;;;5027953;28;20056;-75
2021/09/05 00:31:52;;;;;;;873.17;769.75;;;;;;;;;;5007795;28;20029;-74
2021/09/05 00:34:17;;;;;;;881.72;780.08;;;;;;;;;;5009825;28;20033;-73
2021/09/05 00:36:43;;;;;;;881.67;779.00;;;;;;;;;;5026725;28;20315;-74
2021/09/05 00:39:09;;;;;;;884.10;776.90;;;;;;;;;;5027356;28;20029;-74
2021/09/05 00:41:35;;;;;;;883.03;774.38;;;;;;;;;;5020289;28;20029;-74
2021/09/05 00:44:03;;;;;;;881.97;770.55;;;;;;;;;;5007102;28;20040;-74
2021/09/05 00:46:30;;;;;;;878.15;759.45;;;;;;;;;;5008787;28;20030;-74
2021/09/05 00:48:56;;;;;;;883.88;770.88;;;;;;;;;;5027281;28;20505;-76
2021/09/05 00:51:24;;;;;;;881.05;759.88;;;;;;;;;;5004051;28;20018;-74
2021/09/05 00:53:52;;;;;;;884.30;762.00;;;;;;;;;;5016498;28;20080;-74
2021/09/05 00:56:18;;;;;;;879.88;757.30;;;;;;;;;;5015445;28;20342;-74
2021/09/05 00:58:46;;;;;;;879.63;755.72;;;;;;;;;;5009438;28;20025;-74
2021/09/05 01:01:12;;;;;;;878.08;751.47;;;;;;;;;;5007147;28;20116;-74
2021/09/05 01:03:38;;;;;;;878.75;754.20;;;;;;;;;;5027043;28;20405;-74
2021/09/05 01:06:04;;;;;;;879.15;757.35;;;;;;;;;;5000209;28;20422;-74
2021/09/05 01:08:30;;;;;;;879.13;755.88;;;;;;;;;;5019286;28;20523;-74
2021/09/05 01:10:56;;;;;;;873.05;746.55;;;;;;;;;;5009128;28;20393;-74
2021/09/05 01:13:23;;;;;;;878.83;758.25;;;;;;;;;;5024344;28;20128;-74
2021/09/05 01:15:49;;;;;;;876.35;756.42;;;;;;;;;;5025399;28;20105;-74
2021/09/05 01:18:15;;;;;;;874.15;753.50;;;;;;;;;;5023146;28;20021;-74
2021/09/05 01:20:42;;;;;;;876.15;760.67;;;;;;;;;;5022785;28;20044;-74
2021/09/05 01:23:08;;;;;;;873.30;752.05;;;;;;;;;;5021109;28;20029;-74
2021/09/05 01:25:34;;;;;;;880.50;770.47;;;;;;;;;;5008191;28;20500;-74
2021/09/05 01:28:00;;;;;;;878.72;768.05;;;;;;;;;;5021433;28;20453;-74
2021/09/05 01:30:26;;;;;;;872.55;753.63;;;;;;;;;;5008647;28;20021;-75
2021/09/05 01:32:51;;;;;;;873.92;756.20;;;;;;;;;;5028221;28;20025;-74
2021/09/05 01:35:17;;;;;;;876.08;751.00;;;;;;;;;;5032702;28;20032;-75
2021/09/05 01:37:43;;;;;;;873.15;756.13;;;;;;;;;;5012299;28;20555;-74
2021/09/05 01:40:10;;;;;;;870.45;748.92;;;;;;;;;;5007204;28;20051;-74
2021/09/05 01:42:36;;;;;;;875.15;760.42;;;;;;;;;;5010525;28;20417;-74
2021/09/05 01:45:02;;;;;;;874.42;753.75;;;;;;;;;;5029146;28;20026;-74
2021/09/05 01:47:28;;;;;;;871.90;753.53;;;;;;;;;;5014509;28;20099;-74
2021/09/05 01:49:54;;;;;;;871.78;753.00;;;;;;;;;;5015741;28;20029;-75
2021/09/05 01:52:20;;;;;;;879.17;748.45;;;;;;;;;;5011225;28;20428;-74
2021/09/05 01:54:46;;;;;;;869.83;744.40;;;;;;;;;;5006709;28;20021;-74
2021/09/05 01:57:12;;;;;;;875.15;755.30;;;;;;;;;;5029431;28;20021;-74
2021/09/05 01:59:38;;;;;;;873.00;749.47;;;;;;;;;;5014193;28;20505;-74
2021/09/05 02:02:04;;;;;;;873.78;746.28;;;;;;;;;;5025353;28;20025;-74
2021/09/05 02:04:30;;;;;;;875.10;752.50;;;;;;;;;;5015049;28;20495;-75
2021/09/05 02:06:56;;;;;;;873.67;754.28;;;;;;;;;;5013942;28;20021;-74
2021/09/05 02:09:22;;;;;;;871.95;751.33;;;;;;;;;;5028912;28;20025;-74
2021/09/05 02:11:48;;;;;;;869.67;742.95;;;;;;;;;;5032212;28;20528;-74
2021/09/05 02:14:14;;;;;;;873.72;751.67;;;;;;;;;;5015077;28;20024;-74
2021/09/05 02:16:40;;;;;;;871.03;749.38;;;;;;;;;;5030789;28;20029;-74
2021/09/05 02:19:06;;;;;;;870.90;749.83;;;;;;;;;;5014217;28;20026;-74
2021/09/05 02:21:32;;;;;;;880.00;745.13;;;;;;;;;;5012974;28;20622;-74
2021/09/05 02:23:58;;;;;;;871.65;750.60;;;;;;;;;;5013957;28;20437;-74
2021/09/05 02:26:24;;;;;;;872.88;747.03;;;;;;;;;;5008696;28;20321;-75
2021/09/05 02:28:50;;;;;;;870.55;746.47;;;;;;;;;;5013335;28;20370;-75
2021/09/05 02:31:16;;;;;;;870.80;741.92;;;;;;;;;;5021720;28;20049;-74
2021/09/05 02:33:42;;;;;;;873.80;746.97;;;;;;;;;;5009016;28;20037;-74
2021/09/05 02:36:08;;;;;;;865.53;729.13;;;;;;;;;;5032582;28;20121;-74
2021/09/05 02:38:34;;;;;;;870.78;742.28;;;;;;;;;;5032526;28;20037;-75
2021/09/05 02:41:00;;;;;;;871.45;744.50;;;;;;;;;;5032757;28;20048;-74
2021/09/05 02:43:26;;;;;;;872.42;746.30;;;;;;;;;;5004356;28;20280;-74
2021/09/05 02:45:52;;;;;;;870.50;738.85;;;;;;;;;;5025789;28;20037;-75
2021/09/05 02:48:18;;;;;;;866.10;735.95;;;;;;;;;;5024875;28;20084;-74
2021/09/05 02:50:44;;;;;;;872.50;744.45;;;;;;;;;;5026211;28;20036;-74
2021/09/05 02:53:10;;;;;;;867.42;731.67;;;;;;;;;;5002938;28;20465;-75
2021/09/05 02:55:36;;;;;;;869.35;739.42;;;;;;;;;;5003362;28;20113;-74
2021/09/05 02:58:02;;;;;;;869.85;740.75;;;;;;;;;;5026693;28;20116;-74
2021/09/05 03:00:28;;;;;;;866.03;731.55;;;;;;;;;;5004241;28;20033;-74
2021/09/05 03:02:54;;;;;;;867.20;729.88;;;;;;;;;;5028122;28;20080;-74
2021/09/05 03:05:20;;;;;;;867.60;729.33;;;;;;;;;;5029318;28;20298;-74
2021/09/05 03:07:46;;;;;;;867.60;733.55;;;;;;;;;;5026673;28;20100;-74
2021/09/05 03:10:12;;;;;;;864.92;723.80;;;;;;;;;;5028740;28;20457;-74
2021/09/05 03:12:38;;;;;;;867.25;731.63;;;;;;;;;;5027870;28;20063;-74
2021/09/05 03:15:05;;;;;;;865.80;740.33;;;;;;;;;;5011011;28;20048;-75
2021/09/05 03:17:31;;;;;;;865.78;735.00;;;;;;;;;;5004700;28;20080;-74
2021/09/05 03:19:57;;;;;;;865.80;732.10;;;;;;;;;;5011033;28;20037;-74
2021/09/05 03:22:23;;;;;;;873.30;730.55;;;;;;;;;;5020297;28;20060;-74
2021/09/05 03:24:49;;;;;;;861.17;719.80;;;;;;;;;;5021009;28;20033;-74
2021/09/05 03:27:15;;;;;;;864.95;725.55;;;;;;;;;;5005256;28;20030;-75
2021/09/05 03:29:41;;;;;;;864.95;720.00;;;;;;;;;;5007637;28;20017;-74
2021/09/05 03:32:07;;;;;;;859.58;721.90;;;;;;;;;;5009681;28;20587;-74
2021/09/05 03:34:33;;;;;;;866.03;725.17;;;;;;;;;;5023030;28;20116;-75
2021/09/05 03:36:59;;;;;;;862.92;723.00;;;;;;;;;;5027904;28;20037;-73
2021/09/05 03:39:26;;;;;;;861.33;717.90;;;;;;;;;;5028952;28;20033;-75
2021/09/05 03:41:52;;;;;;;864.00;718.13;;;;;;;;;;5005021;28;20026;-74
2021/09/05 03:44:17;;;;;;;860.75;712.25;;;;;;;;;;4997995;28;20053;-74
2021/09/05 03:46:43;;;;;;;860.80;708.92;;;;;;;;;;5002112;28;20044;-75
2021/09/05 03:49:09;;;;;;;865.10;721.03;;;;;;;;;;5009774;28;20050;-74
2021/09/05 03:51:35;;;;;;;861.60;713.05;;;;;;;;;;5027550;28;20498;-75
2021/09/05 03:54:01;;;;;;;870.03;721.35;;;;;;;;;;5006630;28;20033;-75
2021/09/05 03:56:27;;;;;;;865.78;724.40;;;;;;;;;;5007775;28;20064;-74
2021/09/05 03:58:53;;;;;;;863.80;716.60;;;;;;;;;;5026336;28;20396;-74
2021/09/05 04:01:19;;;;;;;858.47;706.92;;;;;;;;;;5028636;28;20102;-75
2021/09/05 04:03:45;;;;;;;862.60;715.35;;;;;;;;;;5004381;28;20120;-74
2021/09/05 04:06:11;;;;;;;863.58;722.42;;;;;;;;;;5005569;28;20059;-74
2021/09/05 04:08:46;;;;;;;863.63;718.47;;;;;;;;;;5023746;28;20036;-75
2021/09/05 04:11:12;;;;;;;864.67;720.63;;;;;;;;;;5010947;28;20472;-75
2021/09/05 04:13:38;;;;;;;858.88;714.35;;;;;;;;;;5006979;28;20030;-74
2021/09/05 04:16:04;;;;;;;860.70;714.63;;;;;;;;;;5010583;28;20452;-75
2021/09/05 04:18:30;;;;;;;856.17;705.75;;;;;;;;;;5024891;28;20543;-74
2021/09/05 04:20:56;;;;;;;859.25;705.55;;;;;;;;;;5027544;28;20021;-74
2021/09/05 04:23:22;;;;;;;864.67;723.50;;;;;;;;;;5025095;28;20556;-74
2021/09/05 04:25:48;;;;;;;863.22;715.67;;;;;;;;;;5005110;28;20124;-75
2021/09/05 04:28:14;;;;;;;863.00;715.08;;;;;;;;;;5000870;28;20481;-75
2021/09/05 04:30:40;;;;;;;860.80;706.75;;;;;;;;;;5025190;28;20069;-74
2021/09/05 04:33:06;;;;;;;863.33;712.33;;;;;;;;;;5007601;28;20028;-75
2021/09/05 04:35:32;;;;;;;862.25;710.78;;;;;;;;;;5009724;28;20026;-74
2021/09/05 04:37:58;;;;;;;861.85;709.70;;;;;;;;;;5018933;28;20026;-74
2021/09/05 04:40:24;;;;;;;857.53;704.00;;;;;;;;;;5026297;28;20037;-75
2021/09/05 04:42:50;;;;;;;861.75;708.63;;;;;;;;;;5020444;28;20347;-75
2021/09/05 04:45:16;;;;;;;861.85;711.97;;;;;;;;;;5013589;28;20032;-75
2021/09/05 04:47:42;;;;;;;860.90;711.25;;;;;;;;;;5027344;28;20029;-74
2021/09/05 04:50:08;;;;;;;860.42;707.13;;;;;;;;;;5025945;28;20308;-74
2021/09/05 04:52:34;;;;;;;861.33;708.13;;;;;;;;;;5009545;28;20029;-74
2021/09/05 04:55:00;;;;;;;858.75;707.42;;;;;;;;;;5004340;28;20029;-75
2021/09/05 04:57:26;;;;;;;863.65;708.28;;;;;;;;;;5007418;28;20025;-75
2021/09/05 04:59:52;;;;;;;862.67;710.58;;;;;;;;;;5006743;28;20033;-75
2021/09/05 05:02:18;;;;;;;862.88;713.03;;;;;;;;;;5009448;28;20133;-74
2021/09/05 05:04:44;;;;;;;858.55;701.53;;;;;;;;;;5007290;28;20033;-75
2021/09/05 05:07:10;;;;;;;866.47;714.13;;;;;;;;;;5007947;28;20053;-75
2021/09/05 05:09:43;;;;;;;860.47;707.15;;;;;;;;;;5008236;28;20025;-75
2021/09/05 05:12:09;;;;;;;865.47;712.00;;;;;;;;;;5009063;28;20025;-74
2021/09/05 05:14:35;;;;;;;864.70;709.60;;;;;;;;;;5008486;28;20389;-75
2021/09/05 05:17:01;;;;;;;865.05;706.38;;;;;;;;;;5026292;28;20036;-74
2021/09/05 05:19:27;;;;;;;861.30;705.70;;;;;;;;;;5003890;28;20450;-74
2021/09/05 05:21:53;;;;;;;864.97;713.40;;;;;;;;;;5008835;28;20484;-74
2021/09/05 05:24:18;;;;;;;862.17;708.20;;;;;;;;;;5007823;28;20055;-74
2021/09/05 05:26:44;;;;;;;862.33;706.65;;;;;;;;;;5024546;28;20068;-74
2021/09/05 05:29:10;;;;;;;860.38;702.75;;;;;;;;;;5008188;28;20022;-74
2021/09/05 05:31:36;;;;;;;864.10;706.92;;;;;;;;;;5026606;28;20032;-75
2021/09/05 05:34:02;;;;;;;863.20;707.10;;;;;;;;;;5020569;28;20136;-75
2021/09/05 05:36:28;;;;;;;863.65;711.30;;;;;;;;;;5009007;28;20241;-74
2021/09/05 05:38:54;;;;;;;863.95;709.42;;;;;;;;;;5026198;28;20117;-75
2021/09/05 05:41:20;;;;;;;860.22;711.53;;;;;;;;;;5008319;28;20029;-75
2021/09/05 05:43:46;;;;;;;864.10;711.78;;;;;;;;;;5025667;28;20061;-75
2021/09/05 05:46:12;;;;;;;863.20;708.75;;;;;;;;;;5025566;28;20037;-75
2021/09/05 05:48:38;;;;;;;866.45;717.13;;;;;;;;;;5026815;28;20440;-75
2021/09/05 05:51:04;;;;;;;860.42;711.38;;;;;;;;;;5007994;28;20137;-74
2021/09/05 05:53:30;;;;;;;866.85;719.05;;;;;;;;;;5026445;28;20034;-74
2021/09/05 05:55:57;;;;;;;864.30;716.50;;;;;;;;;;5007388;28;20040;-75
2021/09/05 05:58:23;;;;;;;863.72;718.70;;;;;;;;;;5006650;28;20127;-75
2021/09/05 06:00:49;;;;;;;865.08;722.47;;;;;;;;;;5000060;28;20065;-75
2021/09/05 06:03:15;;;;;;;866.15;722.53;;;;;;;;;;5026487;28;20040;-75
2021/09/05 06:05:41;;;;;;;871.45;735.10;;;;;;;;;;5024080;28;20380;-74
2021/09/05 06:08:07;;;;;;;944.97;841.53;;;;;;;;;;5024043;28;20041;-74
2021/09/05 06:10:33;;;;;;;948.15;844.10;;;;;;;;;;5023943;28;20044;-75
2021/09/05 06:12:59;;;;;;;940.67;837.00;;;;;;;;;;5008531;28;20036;-75
2021/09/05 06:15:25;;;;;;;939.35;835.65;;;;;;;;;;5014226;28;20032;-74
2021/09/05 06:17:51;;;;;;;941.65;838.50;;;;;;;;;;5026377;28;20428;-74
2021/09/05 06:20:17;;;;;;;937.97;835.25;;;;;;;;;;5028671;28;20040;-74
2021/09/05 06:22:43;;;;;;;934.00;831.15;;;;;;;;;;5029785;28;20492;-74
2021/09/05 06:25:09;;;;;;;946.42;843.25;;;;;;;;;;5026066;28;20032;-74
2021/09/05 06:27:35;;;;;;;953.90;850.50;;;;;;;;;;5027522;28;20107;-74
2021/09/05 06:30:01;;;;;;;944.42;841.60;;;;;;;;;;5010853;28;20281;-74
2021/09/05 06:32:27;;;;;;;948.15;845.20;;;;;;;;;;5011011;28;20794;-74
2021/09/05 06:34:53;;;;;;;947.10;844.38;;;;;;;;;;5004362;28;20091;-75
2021/09/05 06:37:19;;;;;;;960.00;856.47;;;;;;;;;;5029776;28;20368;-74
2021/09/05 06:39:45;;;;;;;955.10;851.28;;;;;;;;;;5004052;28;20503;-74
2021/09/05 06:42:11;;;;;;;962.35;858.95;;;;;;;;;;5003184;28;20068;-73
2021/09/05 06:44:38;;;;;;;961.95;858.78;;;;;;;;;;5025245;28;20045;-74
2021/09/05 06:47:04;;;;;;;969.25;865.75;;;;;;;;;;5010900;28;20489;-74
2021/09/05 06:49:30;;;;;;;967.65;864.33;;;;;;;;;;5009378;28;20383;-73
2021/09/05 06:51:56;;;;;;;976.50;872.92;;;;;;;;;;5010876;28;20026;-74
2021/09/05 06:54:22;;;;;;;976.05;872.67;;;;;;;;;;5011929;28;20032;-74
2021/09/05 06:56:48;;;;;;;980.28;876.35;;;;;;;;;;5004522;28;20753;-75
2021/09/05 06:59:15;;;;;;;990.22;886.17;;;;;;;;;;5023437;28;20029;-74
2021/09/05 07:01:41;;;;;;;990.05;885.97;;;;;;;;;;5010247;28;20017;-74
2021/09/05 07:04:07;;;;;;;991.28;887.40;;;;;;;;;;5011123;28;20024;-73
2021/09/05 07:06:33;;;;;;;992.78;889.05;;;;;;;;;;5003826;28;20036;-74
2021/09/05 07:08:59;;;;;;;996.95;890.03;;;;;;;;;;5010602;28;20367;-74
2021/09/05 07:11:26;;;;;;;1002.63;898.45;;;;;;;;;;5029041;28;20543;-74
2021/09/05 07:13:52;;;;;;;1003.67;899.53;;;;;;;;;;5028726;28;20021;-73
2021/09/05 07:16:18;;;;;;;1012.25;908.03;;;;;;;;;;5016661;28;20022;-74
2021/09/05 07:18:44;;;;;;;1019.30;914.50;;;;;;;;;;5026215;28;20483;-74
2021/09/05 07:21:10;;;;;;;1029.20;924.35;;;;;;;;;;5009762;28;20087;-74
2021/09/05 07:23:36;;;;;;;1034.63;929.45;;;;;;;;;;5028219;28;20029;-73
2021/09/05 07:26:02;;;;;;;1035.00;929.80;;;;;;;;;;5022118;28;20087;-74
2021/09/05 07:28:32;;;;;;;1039.40;934.00;;;;;;;;;;5026752;28;20512;-73
2021/09/05 07:30:59;;;;;;;1047.05;941.55;;;;;;;;;;5026578;28;20108;-74
2021/09/05 07:33:25;;;;;;;1049.90;944.30;;;;;;;;;;5017757;28;20033;-75
2021/09/05 07:35:51;;;;;;;1057.30;951.25;;;;;;;;;;5025387;28;20025;-73
2021/09/05 07:38:17;;;;;;;1066.03;959.88;;;;;;;;;;5010278;28;20041;-74
2021/09/05 07:40:43;;;;;;;1065.85;959.58;;;;;;;;;;5007837;28;20128;-74
2021/09/05 07:43:09;;;;;;;1068.25;961.97;;;;;;;;;;5009513;28;20049;-74
2021/09/05 07:45:35;;;;;;;1062.75;956.90;;;;;;;;;;5010374;28;20116;-74
2021/09/05 07:48:01;;;;;;;1069.50;963.35;;;;;;;;;;5008281;28;20029;-74
2021/09/05 07:50:27;;;;;;;1071.93;965.85;;;;;;;;;;5025336;28;20029;-75
2021/09/05 07:52:53;;;;;;;1084.00;977.33;;;;;;;;;;5002703;28;20121;-73
2021/09/05 07:55:19;;;;;;;1088.13;981.15;;;;;;;;;;5024843;28;20108;-73
2021/09/05 07:57:45;;;;;;;1091.38;984.38;;;;;;;;;;5025074;28;20029;-74
2021/09/05 08:00:11;;;;;;;1087.22;980.42;;;;;;;;;;5008960;28;20035;-73
2021/09/05 08:02:37;;;;;;;1093.32;986.45;;;;;;;;;;5007357;28;20029;-74
2021/09/05 08:05:03;;;;;;;1093.25;986.38;;;;;;;;;;5007453;28;20079;-73
2021/09/05 08:07:29;;;;;;;1099.47;992.22;;;;;;;;;;5003748;28;20037;-74
2021/09/05 08:09:55;;;;;;;1101.13;993.88;;;;;;;;;;5010411;28;20036;-73
2021/09/05 08:12:22;;;;;;;1109.15;998.72;;;;;;;;;;5026869;28;20029;-75
2021/09/05 08:14:48;;;;;;;1112.63;999.65;;;;;;;;;;5009715;28;20022;-75
2021/09/05 08:17:14;;;;;;;1123.75;999.90;;;;;;;;;;5014533;28;20386;-73
2021/09/05 08:19:39;;;;;;;1126.05;999.90;;;;;;;;;;5005523;28;20041;-75
2021/09/05 08:22:06;;;;;;;1128.40;999.90;;;;;;;;;;5025131;28;20230;-74
2021/09/05 08:24:31;;;;;;;1132.28;999.90;;;;;;;;;;5003705;28;20383;-75
2021/09/05 08:26:57;;;;;;;1140.00;999.90;;;;;;;;;;5005958;28;20496;-74
2021/09/05 08:29:23;;;;;;;1137.30;999.90;;;;;;;;;;5008394;28;20362;-73
2021/09/05 08:31:49;;;;;;;1139.07;999.90;;;;;;;;;;5026445;28;20060;-73
2021/09/05 08:34:15;;;;;;;1141.68;999.90;;;;;;;;;;5022491;28;20017;-73
2021/09/05 08:36:41;;;;;;;1136.88;999.90;;;;;;;;;;5001847;28;20382;-73
2021/09/05 08:39:07;;;;;;;1152.95;999.90;;;;;;;;;;5005665;28;20032;-72
2021/09/05 08:41:33;;;;;;;1155.03;999.90;;;;;;;;;;5009606;28;20025;-74
2021/09/05 08:44:00;;;;;;;1161.47;999.90;;;;;;;;;;5002469;28;20048;-74
2021/09/05 08:46:26;;;;;;;1157.57;999.90;;;;;;;;;;5023187;28;20017;-73
2021/09/05 08:48:54;;;;;;;1167.35;999.90;;;;;;;;;;5024255;28;20033;-73
2021/09/05 08:51:20;;;;;;;1168.07;999.90;;;;;;;;;;5027067;28;20028;-75
2021/09/05 08:53:46;;;;;;;1165.18;999.90;;;;;;;;;;5009250;28;20025;-72
2021/09/05 08:56:12;;;;;;;1171.63;999.90;;;;;;;;;;5026125;28;20535;-73
2021/09/05 08:58:39;;;;;;;1162.30;999.90;;;;;;;;;;5025443;28;20087;-73
2021/09/05 09:01:18;;;;;;;1170.38;999.90;;;;;;;;;;5008643;28;20060;-73
2021/09/05 09:03:44;;;;;;;1165.28;999.90;;;;;;;;;;5009041;28;20029;-73
2021/09/05 09:06:10;;;;;;;1165.35;999.90;;;;;;;;;;5008155;28;20533;-73
2021/09/05 09:08:36;;;;;;;1175.40;999.90;;;;;;;;;;5025758;28;20040;-72
2021/09/05 09:11:02;;;;;;;1164.60;999.90;;;;;;;;;;5009064;28;20217;-73
2021/09/05 09:13:29;;;;;;;1168.10;999.90;;;;;;;;;;5024100;28;20082;-74
2021/09/05 09:15:57;;;;;;;1159.47;999.90;;;;;;;;;;5026773;28;20065;-74
2021/09/05 09:18:26;;;;;;;1171.38;999.90;;;;;;;;;;5006818;28;20546;-74
2021/09/05 09:20:54;;;;;;;1174.78;999.90;;;;;;;;;;5004691;28;20116;-73
2021/09/05 09:23:24;;;;;;;1172.25;999.90;;;;;;;;;;5007070;28;20088;-74
2021/09/05 09:25:57;;;;;;;1182.40;999.90;;;;;;;;;;5007991;28;20033;-74
2021/09/05 09:28:24;;;;;;;1166.82;999.90;;;;;;;;;;5004354;28;20026;-73
2021/09/05 09:30:50;;;;;;;1182.78;999.90;;;;;;;;;;5021086;28;20021;-72
2021/09/05 09:33:20;;;;;;;1172.78;999.90;;;;;;;;;;4995423;28;20073;-73
2021/09/05 09:35:47;;;;;;;1179.00;999.90;;;;;;;;;;5007276;28;20036;-73
2021/09/05 09:38:14;;;;;;;1177.95;999.90;;;;;;;;;;5025745;28;20037;-71
2021/09/05 09:40:40;;;;;;;1175.05;999.90;;;;;;;;;;5004249;28;20029;-73
2021/09/05 09:43:15;;;;;;;1164.32;999.90;;;;;;;;;;5024652;28;20501;-74
2021/09/05 09:45:41;;;;;;;1158.75;999.90;;;;;;;;;;5024896;28;20064;-73
2021/09/05 09:48:08;;;;;;;1168.70;999.90;;;;;;;;;;5005330;28;20037;-72
2021/09/05 09:50:41;;;;;;;1157.32;999.90;;;;;;;;;;5023880;28;20025;-74
2021/09/05 09:53:07;;;;;;;1165.82;999.90;;;;;;;;;;5021527;28;20075;-72
2021/09/05 09:55:33;;;;;;;1177.57;999.90;;;;;;;;;;5005787;28;20388;-74
2021/09/05 09:57:59;;;;;;;1185.43;999.90;;;;;;;;;;5028073;28;20038;-74
2021/09/05 10:00:25;;;;;;;1191.03;999.90;;;;;;;;;;5005730;28;20026;-73
2021/09/05 10:02:51;;;;;;;1200.32;999.90;;;;;;;;;;5003935;28;20072;-73
2021/09/05 10:05:17;;;;;;;1212.88;999.90;;;;;;;;;;5004926;28;20033;-75
2021/09/05 10:07:43;;;;;;;1219.05;999.90;;;;;;;;;;5026408;28;20505;-73
2021/09/05 10:10:11;;;;;;;1216.38;999.90;;;;;;;;;;5009104;28;20018;-74
2021/09/05 10:12:38;;;;;;;1225.38;999.90;;;;;;;;;;5028320;28;20028;-72
2021/09/05 10:15:04;;;;;;;1226.20;999.90;;;;;;;;;;5029759;28;20044;-72
2021/09/05 10:17:30;;;;;;;1230.40;999.90;;;;;;;;;;5029179;28;20074;-73
2021/09/05 10:19:57;;;;;;;1240.15;999.90;;;;;;;;;;5012190;28;20033;-73
2021/09/05 10:22:27;;;;;;;1245.00;999.90;;;;;;;;;;5009635;28;20120;-74
2021/09/05 10:24:54;;;;;;;1251.07;999.90;;;;;;;;;;5028875;28;21724;-74
2021/09/05 10:27:29;;;;;;;1267.13;999.90;;;;;;;;;;5025470;28;20038;-73
2021/09/05 10:30:07;;;;;;;1279.78;999.90;;;;;;;;;;5026983;28;20539;-72
2021/09/05 10:32:43;;;;;;;1277.72;999.90;;;;;;;;;;5011601;28;20436;-73
2021/09/05 10:35:28;;;;;;;1277.63;999.90;;;;;;;;;;5006544;28;20029;-73
2021/09/05 10:38:09;;;;;;;1269.63;999.90;;;;;;;;;;5010289;28;20084;-73
2021/09/05 10:41:02;;;;;;;1255.05;999.90;;;;;;;;;;5004988;28;20378;-72
2021/09/05 10:43:57;;;;;;;1245.18;999.90;;;;;;;;;;5011219;28;20447;-72
2021/09/05 10:46:24;;;;;;;1240.60;999.90;;;;;;;;;;4996788;28;20038;-72
2021/09/05 10:48:57;;;;;;;1245.00;999.90;;;;;;;;;;5014686;28;20666;-72
2021/09/05 10:51:25;;;;;;;1241.35;999.90;;;;;;;;;;5032425;28;20021;-72
2021/09/05 10:53:58;;;;;;;1245.45;999.90;;;;;;;;;;5020730;28;20029;-73
2021/09/05 10:56:26;;;;;;;1255.20;999.90;;;;;;;;;;5001670;28;20650;-73
2021/09/05 10:58:56;;;;;;;1264.90;999.90;;;;;;;;;;5027013;28;20044;-73
2021/09/05 11:01:23;;;;;;;1261.90;999.90;;;;;;;;;;5013895;28;20030;-73
2021/09/05 11:04:08;;;;;;;1266.38;999.90;;;;;;;;;;5013957;28;20060;-73
2021/09/05 11:06:35;;;;;;;1267.90;999.90;;;;;;;;;;5026914;28;20033;-72
2021/09/05 11:11:55;;;;;;;1269.05;999.90;;;;;;;;;;5031573;28;20037;-72
2021/09/05 11:14:45;;;;;;;1270.35;999.90;;;;;;;;;;5025163;28;20022;-73
2021/09/05 11:17:12;;;;;;;1261.07;999.90;;;;;;;;;;5001386;28;20128;-73
2021/09/05 11:19:58;;;;;;;1256.35;999.90;;;;;;;;;;5031591;28;20044;-73
2021/09/05 11:22:26;;;;;;;1251.65;999.90;;;;;;;;;;5010473;28;20037;-73
2021/09/05 11:25:08;;;;;;;1255.68;999.90;;;;;;;;;;5031889;28;20087;-73
2021/09/05 11:27:35;;;;;;;1254.95;999.90;;;;;;;;;;5006098;28;20025;-72
2021/09/05 11:30:02;;;;;;;1259.05;999.90;;;;;;;;;;5027522;28;20034;-74
2021/09/05 11:32:30;;;;;;;1259.30;999.90;;;;;;;;;;5026351;28;20056;-73
2021/09/05 11:34:57;;;;;;;1246.90;999.90;;;;;;;;;;5010871;28;20033;-74
2021/09/05 11:37:27;;;;;;;1255.15;999.90;;;;;;;;;;5028072;28;20030;-73
2021/09/05 11:39:53;;;;;;;1253.55;999.90;;;;;;;;;;5008517;28;20129;-74
2021/09/05 11:42:19;;;;;;;1267.10;999.90;;;;;;;;;;5029136;28;20120;-73
2021/09/05 11:44:45;;;;;;;1280.20;999.90;;;;;;;;;;5008604;28;20041;-75
2021/09/05 11:47:13;;;;;;;1304.57;999.90;;;;;;;;;;5005988;28;20694;-72
2021/09/05 11:49:47;;;;;;;1329.57;999.90;;;;;;;;;;5026783;28;20040;-73
2021/09/05 11:52:19;;;;;;;1350.32;999.90;;;;;;;;;;5018595;28;20013;-73
2021/09/05 11:54:49;;;;;;;1380.60;999.90;;;;;;;;;;5012779;28;20046;-72
2021/09/05 11:57:15;;;;;;;1388.43;999.90;;;;;;;;;;5020601;28;20036;-73
2021/09/05 11:59:41;;;;;;;1399.32;999.90;;;;;;;;;;5003205;28;20037;-72
2021/09/05 12:02:07;;;;;;;1396.30;999.90;;;;;;;;;;5028743;28;20035;-73
2021/09/05 12:04:36;;;;;;;1392.50;999.90;;;;;;;;;;5006156;28;20521;-73
2021/09/05 12:07:04;;;;;;;1387.88;999.90;;;;;;;;;;5019270;28;20049;-72
2021/09/05 12:09:30;;;;;;;1404.63;999.90;;;;;;;;;;5013139;28;20478;-72
2021/09/05 12:12:07;;;;;;;1422.75;999.90;;;;;;;;;;5014567;28;20026;-73
2021/09/05 12:14:34;;;;;;;1434.40;999.90;;;;;;;;;;5029091;28;20041;-72
2021/09/05 12:17:14;;;;;;;1444.25;999.90;;;;;;;;;;5011379;28;20017;-73
2021/09/05 12:19:53;;;;;;;1454.75;999.90;;;;;;;;;;5008834;28;20394;-71
2021/09/05 12:22:20;;;;;;;1462.78;999.90;;;;;;;;;;5012055;28;20017;-73
2021/09/05 12:24:54;;;;;;;1463.05;999.90;;;;;;;;;;5012071;28;20033;-72
2021/09/05 12:27:20;;;;;;;1466.15;999.90;;;;;;;;;;5027080;28;20029;-74
2021/09/05 12:29:46;;;;;;;1460.05;999.90;;;;;;;;;;5006442;28;20347;-73
2021/09/05 12:32:14;;;;;;;1460.35;999.90;;;;;;;;;;5010421;28;20032;-73
2021/09/05 12:34:44;;;;;;;1443.70;999.90;;;;;;;;;;5019314;28;20108;-74
2021/09/05 12:37:15;;;;;;;1422.35;999.90;;;;;;;;;;5022733;28;20043;-72
2021/09/05 12:39:41;;;;;;;1412.57;999.90;;;;;;;;;;5010987;28;20531;-73
2021/09/05 12:42:11;;;;;;;1390.70;999.90;;;;;;;;;;5022258;28;20079;-73
2021/09/05 12:44:37;;;;;;;;;;;;;;;;;;5021108;28;20033;-73
2021/09/05 12:47:03;;;;;;;1350.05;999.90;;;;;;;;;;5004615;28;19906;-72
2021/09/05 12:49:29;;;;;;;1342.93;999.90;;;;;;;;;;5027427;28;20017;-72
2021/09/05 12:52:00;;;;;;;1329.53;999.90;;;;;;;;;;5008841;28;20113;-72
2021/09/05 12:54:27;;;;;;;1314.05;999.90;;;;;;;;;;5019784;28;20095;-73
2021/09/05 12:56:53;;;;;;;1313.75;999.90;;;;;;;;;;5010513;28;20075;-74
2021/09/05 12:59:19;;;;;;;1295.10;999.90;;;;;;;;;;5011121;28;20438;-72
2021/09/05 13:01:49;;;;;;;1295.55;999.90;;;;;;;;;;5006989;28;20029;-74
2021/09/05 13:04:15;;;;;;;;;;;;;;;;;;5029390;28;20331;-73
2021/09/05 13:06:41;;;;;;;1278.93;999.90;;;;;;;;;;5003930;28;19916;-72
2021/09/05 13:09:07;;;;;;;1284.63;999.90;;;;;;;;;;5020310;28;20104;-73
2021/09/05 13:11:34;;;;;;;1277.13;999.90;;;;;;;;;;5011197;28;20731;-73
2021/09/05 13:14:00;;;;;;;1271.97;999.90;;;;;;;;;;5002915;28;20022;-71
2021/09/05 13:16:26;;;;;;;1273.82;999.90;;;;;;;;;;5010637;28;20116;-72
2021/09/05 13:18:52;;;;;;;1265.07;999.90;;;;;;;;;;5023133;28;20034;-73
2021/09/05 13:21:20;;;;;;;1253.50;999.90;;;;;;;;;;5011145;28;20078;-73
2021/09/05 13:23:48;;;;;;;1268.55;999.90;;;;;;;;;;5021032;28;20367;-74
2021/09/05 13:26:15;;;;;;;1260.80;999.90;;;;;;;;;;5021510;28;20072;-73
2021/09/05 13:28:41;;;;;;;1258.07;999.90;;;;;;;;;;5006937;28;20036;-72
2021/09/05 13:31:11;;;;;;;1268.00;999.90;;;;;;;;;;5005667;28;20104;-72
2021/09/05 13:33:37;;;;;;;;;;;;;;;;;;5010884;28;20052;-73
2021/09/05 13:36:03;;;;;;;1251.18;999.90;;;;;;;;;;4996847;28;20365;-71
2021/09/05 13:38:29;;;;;;;1257.90;999.90;;;;;;;;;;5007259;28;20080;-73
2021/09/05 13:40:55;;;;;;;1255.95;999.90;;;;;;;;;;5011092;28;20025;-72
2021/09/05 13:43:21;;;;;;;1267.72;999.90;;;;;;;;;;5025971;28;20045;-72
2021/09/05 13:45:47;;;;;;;1267.45;999.90;;;;;;;;;;5020430;28;20025;-72
2021/09/05 13:48:13;;;;;;;1266.90;999.90;;;;;;;;;;5011102;28;20036;-72
2021/09/05 13:50:40;;;;;;;1263.15;999.90;;;;;;;;;;5027433;28;20112;-72